createdAt,value
2016-05-05T00:00:08.133Z,1023.57
2016-05-05T00:01:08.557Z,1023.59
2016-05-05T00:02:08.123Z,1023.55
2016-05-05T00:03:08.109Z,1023.57
2016-05-05T00:04:08.112Z,1023.58
2016-05-05T00:05:08.692Z,1023.58
2016-05-05T00:06:08.492Z,1023.53
2016-05-05T00:07:08.308Z,1023.55
2016-05-05T00:08:08.310Z,1023.53
2016-05-05T00:09:08.095Z,1023.51
2016-05-05T00:10:08.300Z,1023.53
2016-05-05T00:11:08.381Z,1023.53
2016-05-05T00:12:08.274Z,1023.51
2016-05-05T00:13:08.293Z,1023.51
2016-05-05T00:14:08.296Z,1023.51
2016-05-05T00:15:08.079Z,1023.49
2016-05-05T00:16:08.394Z,1023.46
2016-05-05T00:17:08.084Z,1023.55
2016-05-05T00:18:08.275Z,1023.48
2016-05-05T00:19:08.402Z,1023.48
2016-05-05T00:20:08.062Z,1023.5
2016-05-05T00:21:08.065Z,1023.5
2016-05-05T00:22:08.067Z,1023.48
2016-05-05T00:23:08.273Z,1023.49
2016-05-05T00:24:08.260Z,1023.5
2016-05-05T00:25:08.262Z,1023.51
2016-05-05T00:26:08.499Z,1023.49
2016-05-05T00:27:08.049Z,1023.53
2016-05-05T00:28:08.270Z,1023.48
2016-05-05T00:29:08.039Z,1023.45
2016-05-05T00:30:08.041Z,1023.49
2016-05-05T00:31:08.248Z,1023.46
2016-05-05T00:32:08.047Z,1023.48
2016-05-05T00:33:08.392Z,1023.47
2016-05-05T00:34:08.037Z,1023.47
2016-05-05T00:35:08.227Z,1023.42
2016-05-05T00:36:08.026Z,1023.47
2016-05-05T00:37:08.233Z,1023.49
2016-05-05T00:38:08.500Z,1023.48
2016-05-05T00:39:08.659Z,1023.44
2016-05-05T00:40:08.224Z,1023.43
2016-05-05T00:41:08.571Z,1023.47
2016-05-05T00:42:08.214Z,1023.46
2016-05-05T00:43:08.217Z,1023.48
2016-05-05T00:44:08.204Z,1023.51
2016-05-05T00:45:08.004Z,1023.49
2016-05-05T00:46:08.193Z,1023.5
2016-05-05T00:47:07.994Z,1023.5
2016-05-05T00:48:07.996Z,1023.49
2016-05-05T00:49:08.186Z,1023.49
2016-05-05T00:50:07.985Z,1023.46
2016-05-05T00:51:07.974Z,1023.5
2016-05-05T00:52:07.976Z,1023.48
2016-05-05T00:53:07.979Z,1023.44
2016-05-05T00:54:08.449Z,1023.46
2016-05-05T00:55:08.171Z,1023.46
2016-05-05T00:56:08.174Z,1023.52
2016-05-05T00:57:07.974Z,1023.47
2016-05-05T00:58:08.165Z,1023.47
2016-05-05T00:59:08.167Z,1023.44
2016-05-05T01:00:08.153Z,1023.45
2016-05-05T01:01:07.953Z,1023.46
2016-05-05T01:02:07.940Z,1023.46
2016-05-05T01:03:08.145Z,1023.45
2016-05-05T01:04:08.148Z,1023.45
2016-05-05T01:05:08.136Z,1023.45
2016-05-05T01:06:08.139Z,1023.46
2016-05-05T01:07:07.938Z,1023.46
2016-05-05T01:08:07.925Z,1023.45
2016-05-05T01:09:08.130Z,1023.42
2016-05-05T01:10:07.914Z,1023.41
2016-05-05T01:11:07.917Z,1023.43
2016-05-05T01:12:07.919Z,1023.43
2016-05-05T01:13:08.110Z,1023.43
2016-05-05T01:14:08.113Z,1023.4
2016-05-05T01:15:08.116Z,1023.41
2016-05-05T01:16:08.119Z,1023.39
2016-05-05T01:17:08.105Z,1023.43
2016-05-05T01:18:07.905Z,1023.43
2016-05-05T01:19:07.891Z,1023.41
2016-05-05T01:20:08.098Z,1023.38
2016-05-05T01:21:08.101Z,1023.38
2016-05-05T01:22:08.088Z,1023.36
2016-05-05T01:23:07.887Z,1023.35
2016-05-05T01:24:08.312Z,1023.38
2016-05-05T01:25:07.877Z,1023.35
2016-05-05T01:26:08.083Z,1023.36
2016-05-05T01:27:07.882Z,1023.36
2016-05-05T01:28:08.073Z,1023.34
2016-05-05T01:29:07.856Z,1023.34
2016-05-05T01:30:08.062Z,1023.33
2016-05-05T01:31:07.862Z,1023.33
2016-05-05T01:32:08.068Z,1023.32
2016-05-05T01:33:08.054Z,1023.33
2016-05-05T01:34:07.854Z,1023.35
2016-05-05T01:35:07.842Z,1023.34
2016-05-05T01:36:08.048Z,1023.35
2016-05-05T01:37:08.050Z,1023.32
2016-05-05T01:38:07.850Z,1023.3
2016-05-05T01:39:08.039Z,1023.3
2016-05-05T01:40:07.823Z,1023.28
2016-05-05T01:41:08.030Z,1023.29
2016-05-05T01:42:08.033Z,1023.28
2016-05-05T01:43:07.816Z,1023.3
2016-05-05T01:44:07.803Z,1023.29
2016-05-05T01:45:07.806Z,1023.32
2016-05-05T01:46:08.011Z,1023.31
2016-05-05T01:47:07.810Z,1023.3
2016-05-05T01:48:08.001Z,1023.32
2016-05-05T01:49:08.004Z,1023.27
2016-05-05T01:50:07.991Z,1023.3
2016-05-05T01:51:07.791Z,1023.25
2016-05-05T01:52:07.798Z,1023.26
2016-05-05T01:53:07.843Z,1023.25
2016-05-05T01:54:08.092Z,1023.26
2016-05-05T01:55:08.122Z,1023.26
2016-05-05T01:56:08.167Z,1023.28
2016-05-05T01:57:08.183Z,1023.28
2016-05-05T01:58:08.201Z,1023.33
2016-05-05T01:59:08.219Z,1023.31
2016-05-05T02:00:08.222Z,1023.29
2016-05-05T02:01:08.037Z,1023.29
2016-05-05T02:02:08.035Z,1023.29
2016-05-05T02:03:08.044Z,1023.28
2016-05-05T02:04:08.238Z,1023.26
2016-05-05T02:05:08.045Z,1023.31
2016-05-05T02:06:08.256Z,1023.28
2016-05-05T02:07:08.247Z,1023.31
2016-05-05T02:08:08.252Z,1023.31
2016-05-05T02:09:08.210Z,1023.34
2016-05-05T02:10:08.245Z,1023.29
2016-05-05T02:11:08.030Z,1023.31
2016-05-05T02:12:08.035Z,1023.3
2016-05-05T02:13:08.024Z,1023.29
2016-05-05T02:14:08.229Z,1023.28
2016-05-05T02:15:08.218Z,1023.26
2016-05-05T02:16:08.220Z,1023.28
2016-05-05T02:17:08.224Z,1023.22
2016-05-05T02:18:08.212Z,1023.25
2016-05-05T02:19:08.215Z,1023.23
2016-05-05T02:20:07.999Z,1023.26
2016-05-05T02:21:08.205Z,1023.23
2016-05-05T02:22:08.209Z,1023.24
2016-05-05T02:23:07.994Z,1023.22
2016-05-05T02:24:07.981Z,1023.29
2016-05-05T02:25:08.187Z,1023.26
2016-05-05T02:26:07.970Z,1023.26
2016-05-05T02:27:07.973Z,1023.26
2016-05-05T02:28:08.179Z,1023.26
2016-05-05T02:29:08.166Z,1023.27
2016-05-05T02:30:07.966Z,1023.24
2016-05-05T02:31:08.156Z,1023.27
2016-05-05T02:32:08.159Z,1023.3
2016-05-05T02:33:07.942Z,1023.27
2016-05-05T02:34:07.945Z,1023.25
2016-05-05T02:35:07.932Z,1023.27
2016-05-05T02:36:07.934Z,1023.25
2016-05-05T02:37:08.141Z,1023.26
2016-05-05T02:38:08.128Z,1023.26
2016-05-05T02:39:08.131Z,1023.24
2016-05-05T02:40:08.118Z,1023.25
2016-05-05T02:41:08.120Z,1023.28
2016-05-05T02:42:08.108Z,1023.3
2016-05-05T02:43:08.110Z,1023.27
2016-05-05T02:44:08.098Z,1023.29
2016-05-05T02:45:07.897Z,1023.3
2016-05-05T02:46:08.086Z,1023.32
2016-05-05T02:47:08.089Z,1023.35
2016-05-05T02:48:08.077Z,1023.31
2016-05-05T02:49:08.079Z,1023.29
2016-05-05T02:50:08.067Z,1023.28
2016-05-05T02:51:08.069Z,1023.3
2016-05-05T02:52:08.057Z,1023.27
2016-05-05T02:53:08.059Z,1023.29
2016-05-05T02:54:07.905Z,1023.3
2016-05-05T02:55:07.846Z,1023.27
2016-05-05T02:56:08.052Z,1023.29
2016-05-05T02:57:08.038Z,1023.3
2016-05-05T02:58:08.026Z,1023.35
2016-05-05T02:59:07.826Z,1023.33
2016-05-05T03:00:08.016Z,1023.36
2016-05-05T03:01:08.018Z,1023.38
2016-05-05T03:02:08.021Z,1023.36
2016-05-05T03:03:07.804Z,1023.34
2016-05-05T03:04:07.995Z,1023.34
2016-05-05T03:05:07.998Z,1023.35
2016-05-05T03:06:07.984Z,1023.38
2016-05-05T03:07:07.987Z,1023.37
2016-05-05T03:08:07.990Z,1023.37
2016-05-05T03:09:07.993Z,1023.36
2016-05-05T03:10:07.761Z,1023.35
2016-05-05T03:11:07.763Z,1023.37
2016-05-05T03:12:07.969Z,1023.38
2016-05-05T03:13:07.753Z,1023.41
2016-05-05T03:14:07.959Z,1023.38
2016-05-05T03:15:07.946Z,1023.39
2016-05-05T03:16:07.730Z,1023.37
2016-05-05T03:17:07.936Z,1023.38
2016-05-05T03:18:07.923Z,1023.39
2016-05-05T03:19:07.926Z,1023.36
2016-05-05T03:20:07.710Z,1023.38
2016-05-05T03:21:07.915Z,1023.38
2016-05-05T03:22:07.699Z,1023.36
2016-05-05T03:23:07.905Z,1023.38
2016-05-05T03:24:07.705Z,1023.38
2016-05-05T03:25:07.896Z,1023.35
2016-05-05T03:26:07.679Z,1023.33
2016-05-05T03:27:07.885Z,1023.35
2016-05-05T03:28:07.871Z,1023.33
2016-05-05T03:29:07.875Z,1023.35
2016-05-05T03:30:07.862Z,1023.3
2016-05-05T03:31:07.661Z,1023.35
2016-05-05T03:32:07.851Z,1023.27
2016-05-05T03:33:07.854Z,1023.33
2016-05-05T03:34:07.857Z,1023.35
2016-05-05T03:35:07.844Z,1023.3
2016-05-05T03:36:07.831Z,1023.31
2016-05-05T03:37:07.818Z,1023.32
2016-05-05T03:38:07.821Z,1023.37
2016-05-05T03:39:07.808Z,1023.38
2016-05-05T03:40:07.811Z,1023.41
2016-05-05T03:41:07.594Z,1023.42
2016-05-05T03:42:07.800Z,1023.38
2016-05-05T03:43:07.787Z,1023.32
2016-05-05T03:44:07.587Z,1023.33
2016-05-05T03:45:07.777Z,1023.33
2016-05-05T03:46:07.577Z,1023.36
2016-05-05T03:47:07.564Z,1023.38
2016-05-05T03:48:07.551Z,1023.38
2016-05-05T03:49:07.756Z,1023.37
2016-05-05T03:50:07.540Z,1023.35
2016-05-05T03:51:07.746Z,1023.37
2016-05-05T03:52:07.733Z,1023.37
2016-05-05T03:53:07.735Z,1023.37
2016-05-05T03:54:07.754Z,1023.42
2016-05-05T03:55:07.726Z,1023.43
2016-05-05T03:56:07.713Z,1023.42
2016-05-05T03:57:07.716Z,1023.4
2016-05-05T03:58:07.702Z,1023.43
2016-05-05T03:59:07.690Z,1023.43
2016-05-05T04:00:07.692Z,1023.4
2016-05-05T04:01:07.679Z,1023.38
2016-05-05T04:02:07.479Z,1023.38
2016-05-05T04:03:07.465Z,1023.36
2016-05-05T04:04:07.671Z,1023.36
2016-05-05T04:05:07.659Z,1023.36
2016-05-05T04:06:07.443Z,1023.38
2016-05-05T04:07:07.446Z,1023.37
2016-05-05T04:08:07.432Z,1023.36
2016-05-05T04:09:07.639Z,1023.37
2016-05-05T04:10:07.625Z,1023.37
2016-05-05T04:11:07.628Z,1023.37
2016-05-05T04:12:07.412Z,1023.39
2016-05-05T04:13:07.415Z,1023.39
2016-05-05T04:14:07.605Z,1023.36
2016-05-05T04:15:07.405Z,1023.39
2016-05-05T04:16:07.595Z,1023.4
2016-05-05T04:17:07.582Z,1023.4
2016-05-05T04:18:07.379Z,1023.37
2016-05-05T04:19:07.366Z,1023.37
2016-05-05T04:20:07.558Z,1023.36
2016-05-05T04:21:07.577Z,1023.39
2016-05-05T04:22:07.549Z,1023.38
2016-05-05T04:23:07.551Z,1023.31
2016-05-05T04:24:07.535Z,1023.3
2016-05-05T04:25:07.319Z,1023.31
2016-05-05T04:26:07.525Z,1023.32
2016-05-05T04:27:07.310Z,1023.3
2016-05-05T04:28:07.313Z,1023.31
2016-05-05T04:29:07.299Z,1023.35
2016-05-05T04:30:07.302Z,1023.32
2016-05-05T04:31:07.491Z,1023.32
2016-05-05T04:32:07.291Z,1023.29
2016-05-05T04:33:07.279Z,1023.27
2016-05-05T04:34:07.265Z,1023.27
2016-05-05T04:35:07.471Z,1023.25
2016-05-05T04:36:07.458Z,1023.23
2016-05-05T04:37:07.258Z,1023.26
2016-05-05T04:38:07.448Z,1023.29
2016-05-05T04:39:07.435Z,1023.25
2016-05-05T04:40:07.438Z,1023.29
2016-05-05T04:41:07.425Z,1023.27
2016-05-05T04:42:07.428Z,1023.26
2016-05-05T04:43:07.415Z,1023.25
2016-05-05T04:44:07.198Z,1023.23
2016-05-05T04:45:07.201Z,1023.22
2016-05-05T04:46:07.204Z,1023.22
2016-05-05T04:47:07.192Z,1023.24
2016-05-05T04:48:07.381Z,1023.26
2016-05-05T04:49:07.180Z,1023.24
2016-05-05T04:50:07.372Z,1023.22
2016-05-05T04:51:07.358Z,1023.23
2016-05-05T04:52:07.361Z,1023.27
2016-05-05T04:53:07.347Z,1023.24
2016-05-05T04:54:07.164Z,1023.26
2016-05-05T04:55:07.135Z,1023.25
2016-05-05T04:56:07.324Z,1023.28
2016-05-05T04:57:07.125Z,1023.28
2016-05-05T04:58:07.111Z,1023.29
2016-05-05T04:59:07.098Z,1023.31
2016-05-05T05:00:07.305Z,1023.3
2016-05-05T05:01:07.307Z,1023.32
2016-05-05T05:02:07.294Z,1023.29
2016-05-05T05:03:07.282Z,1023.28
2016-05-05T05:04:07.284Z,1023.28
2016-05-05T05:05:07.270Z,1023.29
2016-05-05T05:06:07.070Z,1023.27
2016-05-05T05:07:07.261Z,1023.31
2016-05-05T05:08:07.248Z,1023.3
2016-05-05T05:09:07.048Z,1023.31
2016-05-05T05:10:07.237Z,1023.28
2016-05-05T05:11:07.224Z,1023.27
2016-05-05T05:12:07.023Z,1023.31
2016-05-05T05:13:07.215Z,1023.29
2016-05-05T05:14:06.998Z,1023.27
2016-05-05T05:15:07.204Z,1023.28
2016-05-05T05:16:07.192Z,1023.25
2016-05-05T05:17:06.975Z,1023.28
2016-05-05T05:18:07.180Z,1023.28
2016-05-05T05:19:07.167Z,1023.28
2016-05-05T05:20:06.967Z,1023.29
2016-05-05T05:21:06.955Z,1023.28
2016-05-05T05:22:07.145Z,1023.22
2016-05-05T05:23:07.147Z,1023.23
2016-05-05T05:24:06.931Z,1023.22
2016-05-05T05:25:06.934Z,1023.24
2016-05-05T05:26:07.124Z,1023.19
2016-05-05T05:27:07.111Z,1023.18
2016-05-05T05:28:07.113Z,1023.19
2016-05-05T05:29:06.897Z,1023.19
2016-05-05T05:30:07.104Z,1023.18
2016-05-05T05:31:07.091Z,1023.18
2016-05-05T05:32:07.077Z,1023.22
2016-05-05T05:33:06.877Z,1023.21
2016-05-05T05:34:07.068Z,1023.22
2016-05-05T05:35:07.054Z,1023.19
2016-05-05T05:36:06.854Z,1023.21
2016-05-05T05:37:07.044Z,1023.22
2016-05-05T05:38:06.828Z,1023.2
2016-05-05T05:39:06.831Z,1023.19
2016-05-05T05:40:06.818Z,1023.21
2016-05-05T05:41:07.009Z,1023.24
2016-05-05T05:42:06.807Z,1023.24
2016-05-05T05:43:06.795Z,1023.24
2016-05-05T05:44:06.797Z,1023.25
2016-05-05T05:45:06.987Z,1023.28
2016-05-05T05:46:06.772Z,1023.32
2016-05-05T05:47:06.775Z,1023.29
2016-05-05T05:48:06.964Z,1023.25
2016-05-05T05:49:06.967Z,1023.31
2016-05-05T05:50:06.751Z,1023.28
2016-05-05T05:51:06.956Z,1023.32
2016-05-05T05:52:06.741Z,1023.3
2016-05-05T05:53:06.931Z,1023.31
2016-05-05T05:54:06.933Z,1023.29
2016-05-05T05:55:06.717Z,1023.34
2016-05-05T05:56:06.908Z,1023.32
2016-05-05T05:57:06.707Z,1023.32
2016-05-05T05:58:06.897Z,1023.35
2016-05-05T05:59:06.885Z,1023.33
2016-05-05T06:00:06.888Z,1023.34
2016-05-05T06:01:06.874Z,1023.34
2016-05-05T06:02:06.877Z,1023.31
2016-05-05T06:03:06.863Z,1023.32
2016-05-05T06:04:06.851Z,1023.32
2016-05-05T06:05:06.651Z,1023.31
2016-05-05T06:06:06.638Z,1023.36
2016-05-05T06:07:06.625Z,1023.32
2016-05-05T06:08:06.831Z,1023.34
2016-05-05T06:09:06.817Z,1023.31
2016-05-05T06:10:06.820Z,1023.31
2016-05-05T06:11:06.808Z,1023.31
2016-05-05T06:12:06.795Z,1023.29
2016-05-05T06:13:06.594Z,1023.3
2016-05-05T06:14:06.784Z,1023.3
2016-05-05T06:15:06.787Z,1023.3
2016-05-05T06:16:06.773Z,1023.33
2016-05-05T06:17:06.761Z,1023.28
2016-05-05T06:18:06.764Z,1023.29
2016-05-05T06:19:06.750Z,1023.29
2016-05-05T06:20:06.738Z,1023.29
2016-05-05T06:21:06.741Z,1023.28
2016-05-05T06:22:06.744Z,1023.25
2016-05-05T06:23:06.521Z,1023.24
2016-05-05T06:24:06.727Z,1023.28
2016-05-05T06:25:06.511Z,1023.26
2016-05-05T06:26:06.498Z,1023.22
2016-05-05T06:27:06.486Z,1023.27
2016-05-05T06:28:06.691Z,1023.28
2016-05-05T06:29:06.474Z,1023.25
2016-05-05T06:30:06.665Z,1023.25
2016-05-05T06:31:06.668Z,1023.28
2016-05-05T06:32:06.468Z,1023.24
2016-05-05T06:33:06.658Z,1023.27
2016-05-05T06:34:06.645Z,1023.24
2016-05-05T06:35:06.648Z,1023.24
2016-05-05T06:36:06.634Z,1023.26
2016-05-05T06:37:06.621Z,1023.23
2016-05-05T06:38:06.624Z,1023.26
2016-05-05T06:39:06.611Z,1023.22
2016-05-05T06:40:06.614Z,1023.24
2016-05-05T06:41:06.398Z,1023.22
2016-05-05T06:42:06.588Z,1023.19
2016-05-05T06:43:06.592Z,1023.15
2016-05-05T06:44:06.578Z,1023.16
2016-05-05T06:45:06.581Z,1023.19
2016-05-05T06:46:06.567Z,1023.18
2016-05-05T06:47:06.555Z,1023.17
2016-05-05T06:48:06.558Z,1023.17
2016-05-05T06:49:06.544Z,1023.18
2016-05-05T06:50:06.531Z,1023.13
2016-05-05T06:51:06.331Z,1023.15
2016-05-05T06:52:06.521Z,1023.14
2016-05-05T06:53:06.321Z,1023.15
2016-05-05T06:54:06.511Z,1023.17
2016-05-05T06:55:06.514Z,1023.16
2016-05-05T06:56:06.516Z,1023.16
2016-05-05T06:57:06.504Z,1023.14
2016-05-05T06:58:06.491Z,1023.13
2016-05-05T06:59:06.477Z,1023.14
2016-05-05T07:00:06.496Z,1023.16
2016-05-05T07:01:06.467Z,1023.11
2016-05-05T07:02:06.455Z,1023.11
2016-05-05T07:03:06.254Z,1023.08
2016-05-05T07:04:06.241Z,1023.12
2016-05-05T07:05:06.447Z,1023.1
2016-05-05T07:06:06.435Z,1023.08
2016-05-05T07:07:06.437Z,1023.06
2016-05-05T07:08:06.424Z,1023.08
2016-05-05T07:09:06.426Z,1023.07
2016-05-05T07:10:06.414Z,1023.02
2016-05-05T07:11:06.198Z,1023.07
2016-05-05T07:12:06.200Z,1023.06
2016-05-05T07:13:06.390Z,1023.09
2016-05-05T07:14:06.190Z,1023.04
2016-05-05T07:15:06.381Z,1023.07
2016-05-05T07:16:06.367Z,1023.08
2016-05-05T07:17:06.369Z,1023.08
2016-05-05T07:18:06.154Z,1023.07
2016-05-05T07:19:06.359Z,1023.07
2016-05-05T07:20:06.347Z,1023.06
2016-05-05T07:21:06.349Z,1023.05
2016-05-05T07:22:06.133Z,1023.06
2016-05-05T07:23:06.324Z,1023.05
2016-05-05T07:24:06.451Z,1023.03
2016-05-05T07:25:06.110Z,1022.95
2016-05-05T07:26:06.097Z,1022.94
2016-05-05T07:27:06.303Z,1022.89
2016-05-05T07:28:06.290Z,1022.87
2016-05-05T07:29:06.293Z,1022.88
2016-05-05T07:30:06.280Z,1022.91
2016-05-05T07:31:06.283Z,1022.9
2016-05-05T07:32:06.066Z,1022.91
2016-05-05T07:33:06.054Z,1022.87
2016-05-05T07:34:06.057Z,1022.86
2016-05-05T07:35:06.246Z,1022.86
2016-05-05T07:36:06.249Z,1022.86
2016-05-05T07:37:06.237Z,1022.88
2016-05-05T07:38:06.035Z,1022.88
2016-05-05T07:39:06.038Z,1022.85
2016-05-05T07:40:06.228Z,1022.87
2016-05-05T07:41:06.013Z,1022.88
2016-05-05T07:42:06.203Z,1022.84
2016-05-05T07:43:06.205Z,1022.79
2016-05-05T07:44:06.193Z,1022.83
2016-05-05T07:45:05.992Z,1022.81
2016-05-05T07:46:06.182Z,1022.77
2016-05-05T07:47:05.966Z,1022.77
2016-05-05T07:48:06.172Z,1022.73
2016-05-05T07:49:05.972Z,1022.74
2016-05-05T07:50:06.161Z,1022.69
2016-05-05T07:51:05.946Z,1022.67
2016-05-05T07:52:05.948Z,1022.65
2016-05-05T07:53:06.139Z,1022.71
2016-05-05T07:54:05.938Z,1022.69
2016-05-05T07:55:06.128Z,1022.7
2016-05-05T07:56:06.130Z,1022.67
2016-05-05T07:57:05.915Z,1022.64
2016-05-05T07:58:06.121Z,1022.63
2016-05-05T07:59:06.108Z,1022.6
2016-05-05T08:00:05.892Z,1022.6
2016-05-05T08:01:05.910Z,1022.61
2016-05-05T08:02:05.882Z,1022.6
2016-05-05T08:03:05.884Z,1022.57
2016-05-05T08:04:05.871Z,1022.59
2016-05-05T08:05:05.874Z,1022.6
2016-05-05T08:06:05.861Z,1022.57
2016-05-05T08:07:05.864Z,1022.58
2016-05-05T08:08:05.851Z,1022.56
2016-05-05T08:09:05.962Z,1022.61
2016-05-05T08:10:06.044Z,1022.6
2016-05-05T08:11:06.046Z,1022.57
2016-05-05T08:12:06.034Z,1022.58
2016-05-05T08:13:06.036Z,1022.57
2016-05-05T08:14:06.023Z,1022.53
2016-05-05T08:15:05.823Z,1022.55
2016-05-05T08:16:05.810Z,1022.59
2016-05-05T08:17:06.000Z,1022.58
2016-05-05T08:18:05.799Z,1022.58
2016-05-05T08:19:05.787Z,1022.61
2016-05-05T08:20:05.820Z,1022.61
2016-05-05T08:21:05.980Z,1022.54
2016-05-05T08:22:05.967Z,1022.53
2016-05-05T08:23:05.970Z,1022.51
2016-05-05T08:24:05.956Z,1022.54
2016-05-05T08:25:06.272Z,1022.53
2016-05-05T08:26:05.743Z,1022.5
2016-05-05T08:27:05.949Z,1022.5
2016-05-05T08:28:05.936Z,1022.49
2016-05-05T08:29:05.939Z,1022.47
2016-05-05T08:30:05.722Z,1022.41
2016-05-05T08:31:05.725Z,1022.42
2016-05-05T08:32:05.713Z,1022.43
2016-05-05T08:33:05.902Z,1022.42
2016-05-05T08:34:05.905Z,1022.42
2016-05-05T08:35:05.893Z,1022.38
2016-05-05T08:36:05.691Z,1022.34
2016-05-05T08:37:05.882Z,1022.32
2016-05-05T08:38:05.682Z,1022.32
2016-05-05T08:39:05.871Z,1022.3
2016-05-05T08:40:05.874Z,1022.28
2016-05-05T08:41:05.861Z,1022.29
2016-05-05T08:42:05.864Z,1022.3
2016-05-05T08:43:05.851Z,1022.26
2016-05-05T08:44:05.635Z,1022.26
2016-05-05T08:45:05.637Z,1022.23
2016-05-05T08:46:05.626Z,1022.26
2016-05-05T08:47:05.628Z,1022.23
2016-05-05T08:48:05.817Z,1022.23
2016-05-05T08:49:05.820Z,1022.2
2016-05-05T08:50:05.620Z,1022.22
2016-05-05T08:51:05.607Z,1022.23
2016-05-05T08:52:05.797Z,1022.21
2016-05-05T08:53:05.597Z,1022.28
2016-05-05T08:54:05.787Z,1022.17
2016-05-05T08:55:05.789Z,1022.2
2016-05-05T08:56:05.777Z,1022.22
2016-05-05T08:57:05.780Z,1022.18
2016-05-05T08:58:05.767Z,1022.12
2016-05-05T08:59:05.566Z,1022.12
2016-05-05T09:00:05.755Z,1022.19
2016-05-05T09:01:05.759Z,1022.12
2016-05-05T09:02:05.559Z,1022.11
2016-05-05T09:03:05.748Z,1022.12
2016-05-05T09:04:05.736Z,1022.11
2016-05-05T09:05:05.519Z,1022.1
2016-05-05T09:06:05.522Z,1022.12
2016-05-05T09:07:05.728Z,1022.13
2016-05-05T09:08:05.715Z,1022.16
2016-05-05T09:09:05.734Z,1022.17
2016-05-05T09:10:05.518Z,1022.16
2016-05-05T09:11:05.520Z,1022.11
2016-05-05T09:12:05.492Z,1022.11
2016-05-05T09:13:05.698Z,1022.07
2016-05-05T09:14:05.482Z,1022.03
2016-05-05T09:15:05.687Z,1022.04
2016-05-05T09:16:05.690Z,1022.01
2016-05-05T09:17:05.474Z,1021.99
2016-05-05T09:18:05.665Z,1022.02
2016-05-05T09:19:05.666Z,1022.01
2016-05-05T09:20:05.670Z,1021.97
2016-05-05T09:21:05.656Z,1021.99
2016-05-05T09:22:05.644Z,1022
2016-05-05T09:23:05.459Z,1022.06
2016-05-05T09:24:05.445Z,1022.01
2016-05-05T09:25:05.636Z,1022.01
2016-05-05T09:26:05.638Z,1021.99
2016-05-05T09:27:05.439Z,1022.02
2016-05-05T09:28:05.628Z,1022.02
2016-05-05T09:29:05.428Z,1022.04
2016-05-05T09:30:05.495Z,1022.04
2016-05-05T09:31:05.612Z,1022.02
2016-05-05T09:32:05.598Z,1022.01
2016-05-05T09:33:05.412Z,1021.99
2016-05-05T09:34:05.591Z,1021.97
2016-05-05T09:35:05.389Z,1021.93
2016-05-05T09:36:05.392Z,1021.88
2016-05-05T09:37:05.380Z,1021.87
2016-05-05T09:38:05.569Z,1021.83
2016-05-05T09:39:05.431Z,1021.81
2016-05-05T09:40:05.372Z,1021.87
2016-05-05T09:41:05.359Z,1021.88
2016-05-05T09:42:05.362Z,1021.91
2016-05-05T09:43:05.546Z,1021.93
2016-05-05T09:44:05.346Z,1021.85
2016-05-05T09:45:05.348Z,1021.84
2016-05-05T09:46:05.538Z,1021.84
2016-05-05T09:47:05.338Z,1021.79
2016-05-05T09:48:05.872Z,1021.83
2016-05-05T09:49:05.328Z,1021.82
2016-05-05T09:50:05.534Z,1021.84
2016-05-05T09:51:05.520Z,1021.8
2016-05-05T09:52:05.320Z,1021.73
2016-05-05T09:53:05.308Z,1021.81
2016-05-05T09:54:05.310Z,1021.8
2016-05-05T09:55:05.516Z,1021.82
2016-05-05T09:56:05.503Z,1021.73
2016-05-05T09:57:05.286Z,1021.78
2016-05-05T09:58:05.492Z,1021.74
2016-05-05T09:59:05.495Z,1021.65
2016-05-05T10:00:05.482Z,1021.71
2016-05-05T10:01:05.485Z,1021.71
2016-05-05T10:02:05.472Z,1021.75
2016-05-05T10:03:05.474Z,1021.67
2016-05-05T10:04:05.258Z,1021.65
2016-05-05T10:05:05.464Z,1021.64
2016-05-05T10:06:05.248Z,1021.59
2016-05-05T10:07:05.454Z,1021.6
2016-05-05T10:08:05.457Z,1021.63
2016-05-05T10:09:05.256Z,1021.59
2016-05-05T10:10:06.806Z,1021.53
2016-05-05T10:11:05.434Z,1021.53
2016-05-05T10:12:05.436Z,1021.53
2016-05-05T10:13:05.424Z,1021.52
2016-05-05T10:14:05.223Z,1021.51
2016-05-05T10:15:05.209Z,1021.56
2016-05-05T10:16:05.213Z,1021.52
2016-05-05T10:17:05.215Z,1021.47
2016-05-05T10:18:05.405Z,1021.43
2016-05-05T10:19:05.471Z,1021.41
2016-05-05T10:20:05.395Z,1021.34
2016-05-05T10:21:05.194Z,1021.34
2016-05-05T10:22:05.182Z,1021.36
2016-05-05T10:23:05.388Z,1021.38
2016-05-05T10:24:05.172Z,1021.36
2016-05-05T10:25:05.377Z,1021.33
2016-05-05T10:26:05.364Z,1021.28
2016-05-05T10:27:05.164Z,1021.3
2016-05-05T10:28:05.745Z,1021.27
2016-05-05T10:29:05.357Z,1021.27
2016-05-05T10:30:05.141Z,1021.28
2016-05-05T10:31:05.346Z,1021.3
2016-05-05T10:32:05.333Z,1021.25
2016-05-05T10:33:05.337Z,1021.21
2016-05-05T10:34:05.324Z,1021.19
2016-05-05T10:35:05.124Z,1021.15
2016-05-05T10:36:05.110Z,1021.16
2016-05-05T10:37:05.113Z,1021.08
2016-05-05T10:38:05.319Z,1021.11
2016-05-05T10:39:05.102Z,1021.2
2016-05-05T10:40:05.262Z,1021.23
2016-05-05T10:41:05.092Z,1021.19
2016-05-05T10:42:05.298Z,1021.2
2016-05-05T10:43:05.082Z,1021.22
2016-05-05T10:44:05.085Z,1021.19
2016-05-05T10:45:05.087Z,1021.17
2016-05-05T10:46:05.278Z,1021.12
2016-05-05T10:47:05.265Z,1021
2016-05-05T10:48:05.268Z,1021.13
2016-05-05T10:49:05.254Z,1021.06
2016-05-05T10:50:05.054Z,1021.03
2016-05-05T10:51:05.244Z,1020.98
2016-05-05T10:52:05.044Z,1020.92
2016-05-05T10:53:05.031Z,1020.97
2016-05-05T10:54:05.236Z,1020.95
2016-05-05T10:55:05.020Z,1020.96
2016-05-05T10:56:05.023Z,1020.96
2016-05-05T10:57:05.214Z,1020.93
2016-05-05T10:58:05.216Z,1020.88
2016-05-05T10:59:05.063Z,1020.9
2016-05-05T11:00:05.078Z,1020.84
2016-05-05T11:01:05.312Z,1020.83
2016-05-05T11:02:05.359Z,1020.82
2016-05-05T11:03:05.186Z,1020.81
2016-05-05T11:04:05.415Z,1020.82
2016-05-05T11:05:05.215Z,1020.72
2016-05-05T11:06:05.436Z,1020.72
2016-05-05T11:07:05.237Z,1020.76
2016-05-05T11:08:05.458Z,1020.75
2016-05-05T11:09:05.251Z,1020.74
2016-05-05T11:10:05.243Z,1020.69
2016-05-05T11:11:05.455Z,1020.73
2016-05-05T11:12:05.244Z,1020.75
2016-05-05T11:13:05.455Z,1020.73
2016-05-05T11:14:05.460Z,1020.73
2016-05-05T11:15:05.246Z,1020.69
2016-05-05T11:16:05.438Z,1020.74
2016-05-05T11:17:05.443Z,1020.71
2016-05-05T11:18:05.228Z,1020.72
2016-05-05T11:19:05.233Z,1020.71
2016-05-05T11:20:05.236Z,1020.63
2016-05-05T11:21:05.223Z,1020.63
2016-05-05T11:22:05.415Z,1020.56
2016-05-05T11:23:05.220Z,1020.55
2016-05-05T11:24:05.418Z,1020.55
2016-05-05T11:25:05.405Z,1020.59
2016-05-05T11:26:05.408Z,1020.51
2016-05-05T11:27:05.193Z,1020.54
2016-05-05T11:28:05.399Z,1020.49
2016-05-05T11:29:05.386Z,1020.46
2016-05-05T11:30:05.389Z,1020.46
2016-05-05T11:31:05.375Z,1020.41
2016-05-05T11:32:05.176Z,1020.38
2016-05-05T11:33:05.367Z,1020.38
2016-05-05T11:34:05.369Z,1020.38
2016-05-05T11:35:05.168Z,1020.35
2016-05-05T11:36:05.155Z,1020.42
2016-05-05T11:37:05.361Z,1020.36
2016-05-05T11:38:05.144Z,1020.36
2016-05-05T11:39:05.351Z,1020.3
2016-05-05T11:40:05.151Z,1020.34
2016-05-05T11:41:05.138Z,1020.33
2016-05-05T11:42:05.344Z,1020.33
2016-05-05T11:43:05.330Z,1020.31
2016-05-05T11:44:05.333Z,1020.3
2016-05-05T11:45:05.320Z,1020.28
2016-05-05T11:46:05.121Z,1020.29
2016-05-05T11:47:05.107Z,1020.24
2016-05-05T11:48:05.313Z,1020.26
2016-05-05T11:49:05.299Z,1020.21
2016-05-05T11:50:05.302Z,1020.22
2016-05-05T11:51:05.102Z,1020.22
2016-05-05T11:52:05.089Z,1020.19
2016-05-05T11:53:05.295Z,1020.22
2016-05-05T11:54:05.095Z,1020.17
2016-05-05T11:55:05.582Z,1020.16
2016-05-05T11:56:05.085Z,1020.14
2016-05-05T11:57:05.290Z,1020.12
2016-05-05T11:58:05.074Z,1020.07
2016-05-05T11:59:05.295Z,1020.08
2016-05-05T12:00:05.064Z,1020.1
2016-05-05T12:01:05.066Z,1020.12
2016-05-05T12:02:05.272Z,1020.02
2016-05-05T12:03:05.259Z,1019.98
2016-05-05T12:04:05.059Z,1020.04
2016-05-05T12:05:05.250Z,1020.01
2016-05-05T12:06:05.064Z,1019.95
2016-05-05T12:07:05.052Z,1019.96